To NAV CANADA Home Page Login to a new session Search on AWWS site Feedback and Comments Disclaimer Vers la page française équivalente Tips FAQ What's new on the site To the Forecasts and Observations / NOTAM section To "File a Flight Plan" website Publications and other links Update of the User's profile FIC Telephone Numbers My Weather Data Folder Route Weather Data Regional Weather Data Local Weather Data To the Forecasts and Observations / NOTAM section
Request Generated 07/31/2015 at 15:21:13 UTC . Weather information available at that time is displayed.

METAR/TAF

MONTREAL/MONTREAL INTL (MIRABEL)/QC    

METAR CYMX 311500Z 28007G19KT 230V330 45SM SCT040 23/15 A2976 RMK CU4
SLP077 DENSITY ALT 1400FT=
METAR CYMX 311400Z 29006KT 260V330 45SM SCT028 SCT075 22/15 A2975 RMK
CU3AC1 SLP075 DENSITY ALT 1300FT=
METAR CYMX 311300Z 25007KT 220V300 45SM SCT040 SCT070 SCT250 20/16
A2974 RMK SC3AC1CI1 AC TR SLP071 DENSITY ALT 1100FT=

TAF CYMX 311140Z 3112/0112 26005KT P6SM BKN060
BECMG 3113/3115 26010G20KT FEW060
FM312000 25010G20KT P6SM BKN050 PROB30 3123/0102 VRB15G25KT 2SM
+TSRA BKN040CB
BECMG 0102/0104 26005KT
FM010500 25005KT P6SM FEW010 SCT050
RMK NXT FCST BY 311800Z=
Your time UTC time
Weather data provided by Environment Canada and NAV CANADA